Novo Milenio — CUOW5 — position and weather

sailwx.info

Track history (hours):
 
Tides and Currents Weather Stations Pressure Air Temp Water Temp Dewpoint Dewpoint Depression Visibility Wind Speed Wind Dir Waves Ship Positions

Novo Milenio

Last reported at 2018-Jun-24 11:00 UTC. Time now 2018-Jun-24 11:15 UTC.
Position N 37°51' W 009°24'.

Length 15 m.

Type: Fishing. MMSI: 263500321.

Date/timePositionNaut miles runAvg speedWind from/ knotsBaromVisibWave heightAir tempDewpointWater temp
2018-Jun-24 11:00N 37°51' W 009°24'2 3.1
2018-Jun-24 10:30N 37°51' W 009°25'0 1.0
2018-Jun-24 10:00N 37°52' W 009°25'0 0.5
2018-Jun-24 09:30N 37°51' W 009°25'0 0.8
2018-Jun-24 09:00N 37°51' W 009°25'0 0.4
2018-Jun-24 08:30N 37°51' W 009°25'0 0.4
2018-Jun-24 08:00N 37°51' W 009°25'0 0.2
2018-Jun-24 07:30N 37°51' W 009°25'3 6.7
2018-Jun-24 07:00N 37°48' W 009°23'3 5.2
2018-Jun-24 06:29N 37°46' W 009°22'0 0.9
2018-Jun-24 06:00N 37°46' W 009°22'0 1.0
2018-Jun-24 05:29N 37°46' W 009°21'0 0.3
2018-Jun-24 05:00N 37°46' W 009°21'0 0.2
2018-Jun-24 04:29N 37°46' W 009°21'1 1.4
2018-Jun-24 04:00N 37°47' W 009°22'4 8.5
2018-Jun-24 03:30N 37°51' W 009°24'1 0.9
2018-Jun-24 02:54N 37°51' W 009°24'4 6.6
2018-Jun-24 02:17N 37°48' W 009°21'2 5.4
2018-Jun-24 01:57N 37°46' W 009°22'1 2.0
2018-Jun-24 01:30N 37°46' W 009°21'0 0.1
2018-Jun-24 00:55N 37°46' W 009°21'0 0.4
2018-Jun-24 00:23N 37°47' W 009°21'1 1.9
2018-Jun-23 23:59N 37°46' W 009°22'3 5.5
2018-Jun-23 23:30N 37°49' W 009°22'3 5.3
2018-Jun-23 22:52N 37°51' W 009°25'2 5.6
2018-Jun-23 22:29N 37°50' W 009°23'3 6.8
2018-Jun-23 22:00N 37°47' W 009°20'  
2018-Jun-21 15:20N 37°18' W 009°15'0 0.1
2018-Jun-21 15:00N 37°18' W 009°15'0 0.9
2018-Jun-21 14:29N 37°18' W 009°15'4 0.5
2018-Jun-21 06:11N 37°15' W 009°18'0 0.9
2018-Jun-21 06:00N 37°15' W 009°18'0 0.9
2018-Jun-21 05:30N 37°14' W 009°19'0 0.1
2018-Jun-21 04:55N 37°15' W 009°19'7 4.6
2018-Jun-21 03:28N 37°20' W 009°13'4 6.2
2018-Jun-21 02:53N 37°17' W 009°16'2 4.1
2018-Jun-21 02:30N 37°16' W 009°17'26 6.0
2018-Jun-20 22:15N 37°41' W 009°22'2 7.3
2018-Jun-20 22:00N 37°43' W 009°22'4 7.3
2018-Jun-20 21:30N 37°46' W 009°22'4 7.4
2018-Jun-20 21:00N 37°50' W 009°22'4 7.4
2018-Jun-20 20:30N 37°54' W 009°24'4 8.0
2018-Jun-20 20:00N 37°57' W 009°24'4 7.9
2018-Jun-20 19:30N 38°01' W 009°25'4 8.0
2018-Jun-20 19:00N 38°05' W 009°26'4 7.9
2018-Jun-20 18:30N 38°09' W 009°27'4 7.7
2018-Jun-20 18:00N 38°13' W 009°28'6 7.5
2018-Jun-20 17:15N 38°19' W 009°29'2 7.5
2018-Jun-20 17:00N 38°20' W 009°29'4 7.9
2018-Jun-20 16:30N 38°24' W 009°30'4 8.0
2018-Jun-20 16:00N 38°28' W 009°30'4 8.1
2018-Jun-20 15:30N 38°32' W 009°31'4 7.8
2018-Jun-20 14:59N 38°36' W 009°31'4 7.9
2018-Jun-20 14:30N 38°40' W 009°32'4 7.8
2018-Jun-20 14:00N 38°44' W 009°32'4 7.9
2018-Jun-20 13:31N 38°48' W 009°32'4 8.3
2018-Jun-20 12:59N 38°52' W 009°31'4 8.3
2018-Jun-20 12:30N 38°56' W 009°30'4 8.3
2018-Jun-20 12:00N 39°00' W 009°28'4 8.2
2018-Jun-20 11:30N 39°04' W 009°27'4 8.0
2018-Jun-20 11:00N 39°08' W 009°26'4 7.8
2018-Jun-20 10:30N 39°12' W 009°25'  
Track history (hours):
 
Tides and Currents Weather Stations Pressure Air Temp Water Temp Dewpoint Dewpoint Depression Visibility Wind Speed Wind Dir Waves Ship Positions

Novo Milenio

Last reported at 2018-Jun-24 11:00 UTC. Time now 2018-Jun-24 11:15 UTC.
Position N 37°51' W 009°24'.

Length 15 m.

Type: Fishing. MMSI: 263500321.

Date/timePositionNaut miles runAvg speedWind from/ knotsBaromVisibWave heightAir tempDewpointWater temp
2018-Jun-24 11:00N 37°51' W 009°24'2 3.1
2018-Jun-24 10:30N 37°51' W 009°25'0 1.0
2018-Jun-24 10:00N 37°52' W 009°25'0 0.5
2018-Jun-24 09:30N 37°51' W 009°25'0 0.8
2018-Jun-24 09:00N 37°51' W 009°25'0 0.4
2018-Jun-24 08:30N 37°51' W 009°25'0 0.4
2018-Jun-24 08:00N 37°51' W 009°25'0 0.2
2018-Jun-24 07:30N 37°51' W 009°25'3 6.7
2018-Jun-24 07:00N 37°48' W 009°23'3 5.2
2018-Jun-24 06:29N 37°46' W 009°22'0 0.9
2018-Jun-24 06:00N 37°46' W 009°22'0 1.0
2018-Jun-24 05:29N 37°46' W 009°21'0 0.3
2018-Jun-24 05:00N 37°46' W 009°21'0 0.2
2018-Jun-24 04:29N 37°46' W 009°21'1 1.4
2018-Jun-24 04:00N 37°47' W 009°22'4 8.5
2018-Jun-24 03:30N 37°51' W 009°24'1 0.9
2018-Jun-24 02:54N 37°51' W 009°24'4 6.6
2018-Jun-24 02:17N 37°48' W 009°21'2 5.4
2018-Jun-24 01:57N 37°46' W 009°22'1 2.0
2018-Jun-24 01:30N 37°46' W 009°21'0 0.1
2018-Jun-24 00:55N 37°46' W 009°21'0 0.4
2018-Jun-24 00:23N 37°47' W 009°21'1 1.9
2018-Jun-23 23:59N 37°46' W 009°22'3 5.5
2018-Jun-23 23:30N 37°49' W 009°22'3 5.3
2018-Jun-23 22:52N 37°51' W 009°25'2 5.6
2018-Jun-23 22:29N 37°50' W 009°23'3 6.8
2018-Jun-23 22:00N 37°47' W 009°20'  
2018-Jun-21 15:20N 37°18' W 009°15'0 0.1
2018-Jun-21 15:00N 37°18' W 009°15'0 0.9
2018-Jun-21 14:29N 37°18' W 009°15'4 0.5
2018-Jun-21 06:11N 37°15' W 009°18'0 0.9
2018-Jun-21 06:00N 37°15' W 009°18'0 0.9
2018-Jun-21 05:30N 37°14' W 009°19'0 0.1
2018-Jun-21 04:55N 37°15' W 009°19'7 4.6
2018-Jun-21 03:28N 37°20' W 009°13'4 6.2
2018-Jun-21 02:53N 37°17' W 009°16'2 4.1
2018-Jun-21 02:30N 37°16' W 009°17'26 6.0
2018-Jun-20 22:15N 37°41' W 009°22'2 7.3
2018-Jun-20 22:00N 37°43' W 009°22'4 7.3
2018-Jun-20 21:30N 37°46' W 009°22'4 7.4
2018-Jun-20 21:00N 37°50' W 009°22'4 7.4
2018-Jun-20 20:30N 37°54' W 009°24'4 8.0
2018-Jun-20 20:00N 37°57' W 009°24'4 7.9
2018-Jun-20 19:30N 38°01' W 009°25'4 8.0
2018-Jun-20 19:00N 38°05' W 009°26'4 7.9
2018-Jun-20 18:30N 38°09' W 009°27'4 7.7
2018-Jun-20 18:00N 38°13' W 009°28'6 7.5
2018-Jun-20 17:15N 38°19' W 009°29'2 7.5
2018-Jun-20 17:00N 38°20' W 009°29'4 7.9
2018-Jun-20 16:30N 38°24' W 009°30'4 8.0
2018-Jun-20 16:00N 38°28' W 009°30'4 8.1
2018-Jun-20 15:30N 38°32' W 009°31'4 7.8
2018-Jun-20 14:59N 38°36' W 009°31'4 7.9
2018-Jun-20 14:30N 38°40' W 009°32'4 7.8
2018-Jun-20 14:00N 38°44' W 009°32'4 7.9
2018-Jun-20 13:31N 38°48' W 009°32'4 8.3
2018-Jun-20 12:59N 38°52' W 009°31'4 8.3
2018-Jun-20 12:30N 38°56' W 009°30'4 8.3
2018-Jun-20 12:00N 39°00' W 009°28'4 8.2
2018-Jun-20 11:30N 39°04' W 009°27'4 8.0
2018-Jun-20 11:00N 39°08' W 009°26'4 7.8
2018-Jun-20 10:30N 39°12' W 009°25'  

Dump ship's entire track history